createdAt,value
2022-11-20T00:01:40.505Z,16.60
2022-11-20T00:04:12.569Z,10.40
2022-11-20T00:06:42.482Z,9.20
2022-11-20T00:09:12.319Z,12.20
2022-11-20T00:11:40.753Z,9.00
2022-11-20T00:14:11.965Z,11.60
2022-11-20T00:16:40.395Z,12.40
2022-11-20T00:19:09.218Z,9.80
2022-11-20T00:21:37.634Z,11.40
2022-11-20T00:24:10.928Z,9.00
2022-11-20T00:26:39.441Z,10.40
2022-11-20T00:29:08.510Z,9.40
2022-11-20T00:31:37.822Z,11.60
2022-11-20T00:34:06.555Z,12.20
2022-11-20T00:36:36.296Z,11.80
2022-11-20T00:39:05.527Z,14.20
2022-11-20T00:41:35.329Z,8.60
2022-11-20T00:44:04.132Z,12.20
2022-11-20T00:46:32.873Z,14.40
2022-11-20T00:49:02.013Z,13.60
2022-11-20T00:51:30.629Z,16.00
2022-11-20T00:54:01.130Z,11.40
2022-11-20T00:56:30.383Z,15.80
2022-11-20T00:59:02.097Z,14.80
2022-11-20T01:01:31.454Z,16.00
2022-11-20T01:04:02.128Z,14.60
2022-11-20T01:06:32.550Z,16.60
2022-11-20T01:09:02.798Z,15.80
2022-11-20T01:11:33.431Z,21.20
2022-11-20T01:14:06.297Z,15.80
2022-11-20T01:16:37.371Z,16.20
2022-11-20T01:19:08.501Z,16.00
2022-11-20T01:21:39.390Z,13.60
2022-11-20T01:24:10.321Z,13.80
2022-11-20T01:26:40.501Z,14.00
2022-11-20T01:29:15.300Z,14.60
2022-11-20T01:31:44.338Z,11.80
2022-11-20T01:34:15.372Z,13.60
2022-11-20T01:36:44.669Z,12.80
2022-11-20T01:39:15.765Z,15.60
2022-11-20T01:42:08.419Z,13.80
2022-11-20T01:44:58.416Z,14.00
2022-11-20T01:47:32.637Z,14.00
2022-11-20T01:50:06.656Z,13.60
2022-11-20T01:52:38.841Z,11.20
2022-11-20T01:55:11.014Z,13.20
2022-11-20T01:57:42.489Z,15.80
2022-11-20T02:00:16.064Z,15.80
2022-11-20T02:02:51.026Z,15.20
2022-11-20T02:05:25.621Z,15.60
2022-11-20T02:07:56.549Z,18.00
2022-11-20T02:10:26.038Z,17.00
2022-11-20T02:13:12.408Z,17.40
2022-11-20T02:15:42.895Z,16.00
2022-11-20T02:18:13.067Z,16.60
2022-11-20T02:20:44.444Z,17.40
2022-11-20T02:23:17.095Z,17.80
2022-11-20T02:25:49.427Z,17.40
2022-11-20T02:28:19.717Z,21.20
2022-11-20T02:30:48.521Z,17.40
2022-11-20T02:33:16.984Z,19.60
2022-11-20T02:35:47.335Z,25.40
2022-11-20T02:38:16.540Z,23.40
2022-11-20T02:40:45.645Z,25.80
2022-11-20T02:43:15.589Z,25.60
2022-11-20T02:45:44.318Z,19.60
2022-11-20T02:48:12.880Z,18.60
2022-11-20T02:50:41.988Z,22.40
2022-11-20T02:53:10.668Z,18.40
2022-11-20T02:55:39.691Z,17.40
2022-11-20T02:58:08.349Z,24.20
2022-11-20T03:00:38.412Z,27.00
2022-11-20T03:03:06.754Z,24.40
2022-11-20T03:05:35.521Z,21.60
2022-11-20T03:08:03.866Z,33.60
2022-11-20T03:10:32.629Z,35.20
2022-11-20T03:13:01.159Z,35.40
2022-11-20T03:15:32.560Z,32.40
2022-11-20T03:18:02.432Z,31.20
2022-11-20T03:20:31.545Z,37.40
2022-11-20T03:22:59.947Z,35.20
2022-11-20T03:25:28.763Z,30.60
2022-11-20T03:27:57.243Z,37.00
2022-11-20T03:30:30.354Z,32.40
2022-11-20T03:32:59.337Z,35.80
2022-11-20T03:35:29.644Z,36.00
2022-11-20T03:37:59.218Z,34.40
2022-11-20T03:40:28.002Z,37.20
2022-11-20T03:42:56.428Z,43.60
2022-11-20T03:45:25.233Z,34.80
2022-11-20T03:47:53.815Z,43.60
2022-11-20T03:50:22.634Z,40.20
2022-11-20T03:52:52.626Z,45.20
2022-11-20T03:55:21.512Z,32.60
2022-11-20T03:57:49.892Z,37.00
2022-11-20T04:00:18.723Z,45.40
2022-11-20T04:02:47.122Z,31.80
2022-11-20T04:05:16.107Z,49.40
2022-11-20T04:07:44.485Z,39.40
2022-11-20T04:10:14.666Z,44.00
2022-11-20T04:12:43.204Z,33.20
2022-11-20T04:15:12.239Z,31.80
2022-11-20T04:17:40.649Z,35.00
2022-11-20T04:20:10.393Z,39.40
2022-11-20T04:22:38.875Z,37.80
2022-11-20T04:25:08.181Z,33.40
2022-11-20T04:27:38.001Z,38.60
2022-11-20T04:30:07.904Z,34.00
2022-11-20T04:32:36.631Z,31.00
2022-11-20T04:35:05.740Z,35.60
2022-11-20T04:37:34.854Z,35.60
2022-11-20T04:40:03.537Z,38.20
2022-11-20T04:42:31.931Z,37.60
2022-11-20T04:45:02.178Z,39.60
2022-11-20T04:47:30.627Z,25.00
2022-11-20T04:49:59.692Z,42.40
2022-11-20T04:52:28.235Z,24.00
2022-11-20T04:54:57.444Z,51.40
2022-11-20T04:57:25.889Z,45.80
2022-11-20T04:59:54.716Z,37.40
2022-11-20T05:02:25.286Z,34.60
2022-11-20T05:04:54.137Z,36.20
2022-11-20T05:07:22.720Z,40.00
2022-11-20T05:09:51.548Z,40.00
2022-11-20T05:12:19.960Z,38.80
2022-11-20T05:14:48.756Z,42.40
2022-11-20T05:17:17.356Z,52.00
2022-11-20T05:19:50.641Z,53.75
2022-11-20T05:22:21.506Z,62.00
2022-11-20T05:24:50.270Z,73.75
2022-11-20T05:27:18.842Z,61.25
2022-11-20T05:29:48.815Z,66.25
2022-11-20T05:32:17.236Z,78.50
2022-11-20T05:34:47.339Z,57.50
2022-11-20T05:37:15.680Z,62.50
2022-11-20T05:39:44.422Z,61.75
2022-11-20T05:42:30.122Z,63.75
2022-11-20T05:44:59.393Z,58.20
2022-11-20T05:47:28.422Z,46.20
2022-11-20T05:49:58.579Z,37.20
2022-11-20T05:52:30.557Z,46.60
2022-11-20T05:54:59.469Z,43.80
2022-11-20T05:57:27.851Z,41.00
2022-11-20T05:59:56.662Z,40.60
2022-11-20T06:02:25.162Z,38.00
2022-11-20T06:04:53.975Z,38.20
2022-11-20T06:07:23.920Z,46.60
2022-11-20T06:09:52.831Z,38.20
2022-11-20T06:12:21.418Z,35.00
2022-11-20T06:14:50.198Z,27.20
2022-11-20T06:17:18.633Z,45.00
2022-11-20T06:19:47.469Z,42.80
2022-11-20T06:22:15.954Z,35.50
2022-11-20T06:24:46.063Z,48.75
2022-11-20T06:27:14.552Z,40.40
2022-11-20T06:29:43.407Z,41.40
2022-11-20T06:32:12.287Z,43.00
2022-11-20T06:34:41.001Z,38.60
2022-11-20T06:37:09.462Z,33.60
2022-11-20T06:39:38.314Z,32.80
2022-11-20T06:42:08.216Z,32.40
2022-11-20T06:44:37.115Z,42.20
2022-11-20T06:47:06.241Z,33.60
2022-11-20T06:49:35.371Z,28.40
2022-11-20T06:52:03.894Z,31.40
2022-11-20T06:54:32.631Z,45.50
2022-11-20T06:57:01.113Z,42.60
2022-11-20T06:59:31.246Z,36.00
2022-11-20T07:01:59.789Z,36.20
2022-11-20T07:04:28.623Z,37.20
2022-11-20T07:06:57.346Z,37.40
2022-11-20T07:09:26.636Z,36.60
2022-11-20T07:11:55.330Z,40.40
2022-11-20T07:14:24.091Z,33.40
2022-11-20T07:16:53.908Z,36.60
2022-11-20T07:19:22.713Z,31.80
2022-11-20T07:21:51.322Z,60.60
2022-11-20T07:24:20.036Z,59.60
2022-11-20T07:26:49.800Z,55.40
2022-11-20T07:29:18.752Z,64.75
2022-11-20T07:31:47.266Z,52.20
2022-11-20T07:34:17.359Z,64.00
2022-11-20T07:36:45.739Z,57.00
2022-11-20T07:39:14.490Z,38.00
2022-11-20T07:41:42.867Z,35.00
2022-11-20T07:44:11.742Z,48.40
2022-11-20T07:46:40.140Z,68.00
2022-11-20T07:49:09.134Z,61.00
2022-11-20T07:51:39.105Z,37.00
2022-11-20T07:54:08.055Z,42.40
2022-11-20T07:56:36.528Z,49.20
2022-11-20T07:59:05.669Z,47.60
2022-11-20T08:01:33.979Z,47.00
2022-11-20T08:04:02.807Z,41.80
2022-11-20T08:06:31.374Z,56.00
2022-11-20T08:09:01.796Z,44.00
2022-11-20T08:11:48.082Z,35.80
2022-11-20T08:14:16.900Z,41.00
2022-11-20T08:16:47.616Z,33.60
2022-11-20T08:19:18.364Z,36.40
2022-11-20T08:21:47.275Z,29.80
2022-11-20T08:24:17.480Z,32.40
2022-11-20T08:26:45.953Z,25.20
2022-11-20T08:29:15.740Z,26.60
2022-11-20T08:31:44.346Z,25.80
2022-11-20T08:34:33.129Z,22.00
2022-11-20T08:37:03.836Z,29.80
2022-11-20T08:39:34.008Z,32.20
2022-11-20T08:42:02.540Z,39.60
2022-11-20T08:44:31.747Z,57.20
2022-11-20T08:47:00.275Z,48.80
2022-11-20T08:49:29.425Z,33.80
2022-11-20T08:51:59.057Z,81.00
2022-11-20T08:54:27.794Z,22.40
2022-11-20T08:56:57.721Z,26.20
2022-11-20T08:59:50.667Z,22.80
2022-11-20T09:02:14.948Z,27.40
2022-11-20T09:04:43.736Z,29.80
2022-11-20T09:07:12.301Z,31.60
2022-11-20T09:09:41.095Z,54.75
2022-11-20T09:12:10.993Z,30.40
2022-11-20T09:14:39.805Z,24.60
2022-11-20T09:17:08.788Z,31.60
2022-11-20T09:19:37.492Z,62.25
2022-11-20T09:22:06.032Z,30.40
2022-11-20T09:24:34.957Z,35.60
2022-11-20T09:27:07.143Z,24.00
2022-11-20T09:29:37.489Z,28.00
2022-11-20T09:32:07.041Z,29.20
2022-11-20T09:34:35.846Z,32.20
2022-11-20T09:37:06.526Z,15.60
2022-11-20T09:39:39.911Z,27.60
2022-11-20T09:42:51.616Z,32.00
2022-11-20T09:45:45.239Z,33.00
2022-11-20T09:48:28.204Z,53.40
2022-11-20T09:51:06.301Z,49.60
2022-11-20T09:53:43.932Z,40.60
2022-11-20T09:56:16.984Z,38.60
2022-11-20T09:58:52.864Z,28.40
2022-11-20T10:01:28.273Z,45.80
2022-11-20T10:04:01.074Z,35.00
2022-11-20T10:06:32.806Z,43.80
2022-11-20T10:09:16.484Z,39.20
2022-11-20T10:11:54.035Z,39.80
2022-11-20T10:14:35.469Z,43.00
2022-11-20T10:17:18.992Z,46.40
2022-11-20T10:20:05.003Z,41.00
2022-11-20T10:22:47.126Z,30.00
2022-11-20T10:25:18.047Z,35.60
2022-11-20T10:28:00.890Z,58.40
2022-11-20T10:30:31.293Z,49.00
2022-11-20T10:33:08.855Z,42.60
2022-11-20T10:35:45.334Z,59.75
2022-11-20T10:38:21.772Z,56.25
2022-11-20T10:40:54.120Z,47.40
2022-11-20T10:43:29.633Z,65.00
2022-11-20T10:46:02.760Z,52.00
2022-11-20T10:48:34.675Z,63.25
2022-11-20T10:51:24.065Z,55.50
2022-11-20T10:54:12.642Z,42.00
2022-11-20T10:56:49.508Z,59.50
2022-11-20T10:59:37.706Z,56.00
2022-11-20T11:02:18.587Z,43.25
2022-11-20T11:04:51.561Z,51.00
2022-11-20T11:07:25.662Z,63.75
2022-11-20T11:09:57.094Z,68.25
2022-11-20T11:12:27.892Z,78.00
2022-11-20T11:14:58.936Z,62.50
2022-11-20T11:17:30.404Z,46.00
2022-11-20T11:20:02.693Z,62.00
2022-11-20T11:22:32.435Z,72.00
2022-11-20T11:25:02.062Z,63.50
2022-11-20T11:27:30.852Z,67.00
2022-11-20T11:30:16.146Z,28.25
2022-11-20T11:32:46.153Z,63.00
2022-11-20T11:35:25.872Z,57.50
2022-11-20T11:38:17.524Z,56.50
2022-11-20T11:40:46.409Z,51.25
2022-11-20T11:43:39.954Z,65.50
2022-11-20T11:46:27.561Z,56.50
2022-11-20T11:49:00.683Z,46.00
2022-11-20T11:51:38.567Z,43.50
2022-11-20T11:54:18.293Z,44.50
2022-11-20T11:56:48.064Z,45.25
2022-11-20T11:59:25.705Z,53.25
2022-11-20T12:02:01.447Z,53.50
2022-11-20T12:04:44.763Z,51.25
2022-11-20T12:07:45.406Z,60.75
2022-11-20T12:10:21.176Z,75.25
2022-11-20T12:12:55.600Z,84.50
2022-11-20T12:15:33.517Z,68.00
2022-11-20T12:18:03.279Z,66.00
2022-11-20T12:20:37.845Z,63.00
2022-11-20T12:23:18.663Z,71.50
2022-11-20T12:25:55.775Z,68.75
2022-11-20T12:28:48.970Z,64.75
2022-11-20T12:31:32.146Z,65.75
2022-11-20T12:34:12.108Z,57.25
2022-11-20T12:36:47.576Z,43.50
2022-11-20T12:39:33.327Z,55.00
2022-11-20T12:43:06.357Z,46.80
2022-11-20T12:45:54.360Z,42.00
2022-11-20T12:48:46.616Z,40.60
2022-11-20T12:51:45.354Z,44.50
2022-11-20T12:54:31.318Z,43.00
2022-11-20T12:57:06.949Z,44.00
2022-11-20T13:00:00.741Z,45.75
2022-11-20T13:02:39.470Z,40.20
2022-11-20T13:05:21.774Z,37.40
2022-11-20T13:07:54.540Z,40.60
2022-11-20T13:10:34.661Z,37.40
2022-11-20T13:13:14.650Z,36.40
2022-11-20T13:15:52.869Z,35.20
2022-11-20T13:18:22.264Z,45.80
2022-11-20T13:20:50.917Z,41.00
2022-11-20T13:23:27.941Z,37.75
2022-11-20T13:26:16.062Z,27.60
2022-11-20T13:28:44.918Z,35.80
2022-11-20T13:31:32.331Z,30.40
2022-11-20T13:34:03.793Z,42.25
2022-11-20T13:36:33.407Z,52.75
2022-11-20T13:39:02.151Z,39.75
2022-11-20T13:41:35.083Z,39.50
2022-11-20T13:44:14.931Z,46.50
2022-11-20T13:46:45.646Z,48.75
2022-11-20T13:49:22.878Z,50.50
2022-11-20T13:51:54.170Z,55.50
2022-11-20T13:54:55.628Z,43.80
2022-11-20T13:57:50.825Z,53.50
2022-11-20T14:00:22.107Z,46.25
2022-11-20T14:03:04.122Z,41.80
2022-11-20T14:05:37.039Z,43.00
2022-11-20T14:08:07.626Z,44.00
2022-11-20T14:10:40.125Z,49.40
2022-11-20T14:13:21.221Z,33.20
2022-11-20T14:15:50.212Z,46.00
2022-11-20T14:18:23.461Z,44.25
2022-11-20T14:20:52.363Z,49.75
2022-11-20T14:23:30.073Z,59.00
2022-11-20T14:25:59.639Z,51.00
2022-11-20T14:28:31.641Z,64.00
2022-11-20T14:31:01.075Z,58.75
2022-11-20T14:33:29.971Z,54.25
2022-11-20T14:35:59.908Z,53.25
2022-11-20T14:38:31.097Z,55.25
2022-11-20T14:41:08.987Z,61.75
2022-11-20T14:43:39.207Z,59.00
2022-11-20T14:46:11.082Z,55.50
2022-11-20T14:48:41.853Z,58.25
2022-11-20T14:51:12.158Z,61.50
2022-11-20T14:53:40.776Z,53.50
2022-11-20T14:56:10.842Z,55.75
2022-11-20T14:58:41.693Z,58.50
2022-11-20T15:01:15.827Z,61.50
2022-11-20T15:03:44.644Z,58.25
2022-11-20T15:06:14.537Z,54.25
2022-11-20T15:08:52.779Z,51.00
2022-11-20T15:11:25.843Z,53.75
2022-11-20T15:13:56.251Z,55.50
2022-11-20T15:16:27.823Z,47.75
2022-11-20T15:18:57.191Z,51.25
2022-11-20T15:21:26.354Z,38.75
2022-11-20T15:23:55.453Z,55.00
2022-11-20T15:26:27.123Z,96.00
2022-11-20T15:28:57.222Z,42.00
2022-11-20T15:31:26.297Z,39.40
2022-11-20T15:33:54.787Z,31.80
2022-11-20T15:36:23.713Z,29.20
2022-11-20T15:39:12.710Z,30.00
2022-11-20T15:41:41.836Z,23.80
2022-11-20T15:44:12.539Z,35.60
2022-11-20T15:46:45.586Z,27.60
2022-11-20T15:49:15.836Z,23.00
2022-11-20T15:51:47.373Z,33.80
2022-11-20T15:54:18.575Z,30.20
2022-11-20T15:56:47.758Z,32.80
2022-11-20T15:59:17.707Z,31.80
2022-11-20T16:01:47.229Z,36.60
2022-11-20T16:04:17.805Z,29.60
2022-11-20T16:06:47.060Z,29.80
2022-11-20T16:09:15.972Z,34.80
2022-11-20T16:11:45.673Z,28.60
2022-11-20T16:14:31.814Z,25.20
2022-11-20T16:17:02.691Z,25.00
2022-11-20T16:19:31.399Z,39.80
2022-11-20T16:22:02.887Z,43.80
2022-11-20T16:24:32.275Z,36.60
2022-11-20T16:27:04.090Z,29.80
2022-11-20T16:29:32.694Z,30.20
2022-11-20T16:32:03.351Z,27.00
2022-11-20T16:34:32.322Z,38.40
2022-11-20T16:37:01.523Z,40.60
2022-11-20T16:39:30.384Z,36.80
2022-11-20T16:41:59.461Z,38.40
2022-11-20T16:44:28.687Z,46.00
2022-11-20T16:46:57.907Z,33.60
2022-11-20T16:49:28.562Z,37.20
2022-11-20T16:51:57.962Z,33.00
2022-11-20T16:54:27.435Z,41.75
2022-11-20T16:56:56.557Z,41.75
2022-11-20T16:59:25.567Z,33.40
2022-11-20T17:01:54.762Z,45.00
2022-11-20T17:04:24.807Z,25.40
2022-11-20T17:06:55.571Z,42.00
2022-11-20T17:09:24.353Z,39.25
2022-11-20T17:11:53.077Z,30.60
2022-11-20T17:14:21.885Z,39.20
2022-11-20T17:16:50.773Z,36.60
2022-11-20T17:19:20.090Z,37.60
2022-11-20T17:21:49.809Z,35.25
2022-11-20T17:24:20.108Z,65.75
2022-11-20T17:26:50.123Z,37.80
2022-11-20T17:29:21.694Z,37.00
2022-11-20T17:31:50.894Z,34.00
2022-11-20T17:34:20.052Z,36.20
2022-11-20T17:36:50.315Z,38.20
2022-11-20T17:39:20.252Z,32.60
2022-11-20T17:42:09.664Z,39.00
2022-11-20T17:44:38.441Z,25.40
2022-11-20T17:47:07.429Z,33.00
2022-11-20T17:49:56.033Z,39.60
2022-11-20T17:52:25.291Z,36.20
2022-11-20T17:54:56.101Z,41.20
2022-11-20T17:57:42.928Z,41.40
2022-11-20T18:00:13.258Z,35.00
2022-11-20T18:02:42.247Z,24.40
2022-11-20T18:05:11.077Z,42.40
2022-11-20T18:07:41.949Z,35.40
2022-11-20T18:10:12.349Z,38.80
2022-11-20T18:12:41.548Z,39.00
2022-11-20T18:15:30.528Z,36.00
2022-11-20T18:17:59.387Z,38.75
2022-11-20T18:20:30.478Z,44.25
2022-11-20T18:23:01.935Z,41.20
2022-11-20T18:25:31.859Z,42.20
2022-11-20T18:28:00.831Z,41.25
2022-11-20T18:30:29.494Z,42.60
2022-11-20T18:32:58.352Z,31.60
2022-11-20T18:35:28.195Z,2.00
2022-11-20T18:37:57.066Z,41.00
2022-11-20T18:40:25.942Z,45.75
2022-11-20T18:43:14.160Z,43.75
2022-11-20T18:45:42.752Z,44.75
2022-11-20T18:48:11.848Z,43.50
2022-11-20T18:50:40.419Z,37.00
2022-11-20T18:53:09.268Z,51.50
2022-11-20T18:55:37.905Z,52.50
2022-11-20T18:58:08.155Z,54.25
2022-11-20T19:00:36.733Z,55.75
2022-11-20T19:03:05.631Z,62.75
2022-11-20T19:05:38.488Z,53.50
2022-11-20T19:08:07.434Z,55.75
2022-11-20T19:10:37.569Z,69.50
2022-11-20T19:13:08.069Z,63.00
2022-11-20T19:15:37.757Z,59.50
2022-11-20T19:18:06.714Z,58.75
2022-11-20T19:20:35.344Z,63.50
2022-11-20T19:23:04.262Z,64.25
2022-11-20T19:25:37.887Z,60.25
2022-11-20T19:28:08.519Z,60.50
2022-11-20T19:30:36.984Z,61.00
2022-11-20T19:33:05.978Z,48.25
2022-11-20T19:35:36.554Z,58.75
2022-11-20T19:38:06.106Z,58.75
2022-11-20T19:40:34.691Z,49.75
2022-11-20T19:43:03.988Z,56.50
2022-11-20T19:45:33.916Z,53.50
2022-11-20T19:48:09.873Z,53.50
2022-11-20T19:50:38.687Z,39.60
2022-11-20T19:53:07.578Z,47.25
2022-11-20T19:55:36.101Z,49.80
2022-11-20T19:58:05.077Z,41.75
2022-11-20T20:00:34.831Z,36.80
2022-11-20T20:03:03.620Z,34.40
2022-11-20T20:05:33.128Z,42.80
2022-11-20T20:08:02.005Z,34.20
2022-11-20T20:10:30.575Z,45.25
2022-11-20T20:12:59.355Z,55.75
2022-11-20T20:15:27.811Z,50.00
2022-11-20T20:17:58.078Z,42.75
2022-11-20T20:20:27.358Z,53.00
2022-11-20T20:22:56.655Z,46.60
2022-11-20T20:25:25.987Z,48.00
2022-11-20T20:27:56.002Z,40.40
2022-11-20T20:30:26.222Z,39.00
2022-11-20T20:33:04.347Z,41.40
2022-11-20T20:35:34.351Z,49.00
2022-11-20T20:38:03.506Z,39.20
2022-11-20T20:40:32.737Z,37.75
2022-11-20T20:43:02.427Z,44.60
2022-11-20T20:45:31.596Z,35.40
2022-11-20T20:48:01.220Z,40.60
2022-11-20T20:50:30.179Z,44.75
2022-11-20T20:53:00.594Z,43.80
2022-11-20T20:55:49.098Z,39.50
2022-11-20T20:58:18.228Z,38.80
2022-11-20T21:00:47.057Z,37.00
2022-11-20T21:03:16.356Z,37.20
2022-11-20T21:05:45.183Z,41.40
2022-11-20T21:08:25.428Z,38.40
2022-11-20T21:10:55.716Z,34.20
2022-11-20T21:13:25.219Z,37.00
2022-11-20T21:15:54.015Z,39.40
2022-11-20T21:18:24.487Z,36.80
2022-11-20T21:21:10.728Z,47.25
2022-11-20T21:23:41.887Z,52.60
2022-11-20T21:26:11.338Z,46.50
2022-11-20T21:28:40.251Z,48.50
2022-11-20T21:31:10.416Z,57.50
2022-11-20T21:33:40.866Z,56.25
2022-11-20T21:36:09.805Z,48.50
2022-11-20T21:38:40.507Z,51.75
2022-11-20T21:41:11.377Z,36.25
2022-11-20T21:43:40.430Z,49.50
2022-11-20T21:46:10.691Z,48.50
2022-11-20T21:48:40.866Z,47.50
2022-11-20T21:51:11.136Z,33.75
2022-11-20T21:53:42.130Z,40.50
2022-11-20T21:56:14.329Z,33.40
2022-11-20T21:58:47.182Z,54.75
2022-11-20T22:01:18.012Z,28.20
2022-11-20T22:03:49.549Z,46.50
2022-11-20T22:06:18.834Z,45.75
2022-11-20T22:08:49.794Z,46.00
2022-11-20T22:11:20.703Z,39.20
2022-11-20T22:14:07.755Z,28.00
2022-11-20T22:16:37.003Z,43.00
2022-11-20T22:19:07.017Z,50.40
2022-11-20T22:21:36.060Z,45.20
2022-11-20T22:24:06.839Z,52.75
2022-11-20T22:26:40.325Z,45.50
2022-11-20T22:29:15.024Z,40.50
2022-11-20T22:31:43.940Z,44.25
2022-11-20T22:34:14.333Z,48.00
2022-11-20T22:36:43.221Z,49.80
2022-11-20T22:39:13.758Z,49.40
2022-11-20T22:41:42.437Z,49.00
2022-11-20T22:44:15.497Z,40.40
2022-11-20T22:46:44.288Z,41.40
2022-11-20T22:49:13.185Z,43.00
2022-11-20T22:51:43.008Z,41.50
2022-11-20T22:54:14.040Z,49.00
2022-11-20T22:57:03.427Z,46.00
2022-11-20T22:59:32.602Z,49.00
2022-11-20T23:02:00.976Z,48.25
2022-11-20T23:04:29.595Z,51.25
2022-11-20T23:06:57.923Z,43.50
2022-11-20T23:09:27.986Z,44.00
2022-11-20T23:11:56.472Z,39.75
2022-11-20T23:14:27.848Z,41.75
2022-11-20T23:16:56.479Z,42.40
2022-11-20T23:19:25.386Z,52.25
2022-11-20T23:21:54.264Z,39.25
2022-11-20T23:24:23.069Z,41.60
2022-11-20T23:26:52.961Z,44.20
2022-11-20T23:29:21.730Z,39.00
2022-11-20T23:31:50.189Z,48.60
2022-11-20T23:34:19.273Z,35.40
2022-11-20T23:36:47.890Z,38.00
2022-11-20T23:39:16.865Z,47.00
2022-11-20T23:41:45.282Z,50.25
2022-11-20T23:44:15.447Z,42.00
2022-11-20T23:46:44.024Z,40.75
2022-11-20T23:49:12.743Z,49.00
2022-11-20T23:51:41.272Z,47.50
2022-11-20T23:54:10.132Z,46.00
2022-11-20T23:56:38.529Z,42.40
2022-11-20T23:59:07.935Z,18.60
